sensor_id;sensor_type;location;lat;lon;timestamp;temperature;humidity
44607;DHT22;30315;46.072;14.474;2023-08-06T00:01:12;19.00;99.90
44607;DHT22;30315;46.072;14.474;2023-08-06T00:03:39;19.00;99.90
44607;DHT22;30315;46.072;14.474;2023-08-06T00:06:06;19.00;99.90
44607;DHT22;30315;46.072;14.474;2023-08-06T00:08:33;18.90;99.90
44607;DHT22;30315;46.072;14.474;2023-08-06T00:11:00;19.00;99.90
44607;DHT22;30315;46.072;14.474;2023-08-06T00:13:27;19.00;99.90
44607;DHT22;30315;46.072;14.474;2023-08-06T00:15:53;18.90;99.90
44607;DHT22;30315;46.072;14.474;2023-08-06T00:18:20;19.00;99.90
44607;DHT22;30315;46.072;14.474;2023-08-06T00:20:47;19.00;99.90
44607;DHT22;30315;46.072;14.474;2023-08-06T00:23:14;19.00;99.90
44607;DHT22;30315;46.072;14.474;2023-08-06T00:25:41;19.00;99.90
44607;DHT22;30315;46.072;14.474;2023-08-06T00:28:08;19.10;99.90
44607;DHT22;30315;46.072;14.474;2023-08-06T00:30:35;19.00;99.90
44607;DHT22;30315;46.072;14.474;2023-08-06T00:33:02;18.90;99.90
44607;DHT22;30315;46.072;14.474;2023-08-06T00:35:29;18.90;99.90
44607;DHT22;30315;46.072;14.474;2023-08-06T00:37:56;18.90;99.90
44607;DHT22;30315;46.072;14.474;2023-08-06T00:40:23;18.90;99.90
44607;DHT22;30315;46.072;14.474;2023-08-06T00:42:50;18.60;99.90
44607;DHT22;30315;46.072;14.474;2023-08-06T00:45:17;18.90;99.90
44607;DHT22;30315;46.072;14.474;2023-08-06T00:47:44;18.90;99.90
44607;DHT22;30315;46.072;14.474;2023-08-06T00:50:12;18.90;99.90
44607;DHT22;30315;46.072;14.474;2023-08-06T00:52:39;18.90;99.90
44607;DHT22;30315;46.072;14.474;2023-08-06T00:55:06;18.90;99.90
44607;DHT22;30315;46.072;14.474;2023-08-06T00:57:34;18.90;99.90
44607;DHT22;30315;46.072;14.474;2023-08-06T01:00:01;18.90;99.90
44607;DHT22;30315;46.072;14.474;2023-08-06T01:02:27;18.90;99.90
44607;DHT22;30315;46.072;14.474;2023-08-06T01:04:54;18.90;99.90
44607;DHT22;30315;46.072;14.474;2023-08-06T01:15:18;18.80;99.90
44607;DHT22;30315;46.072;14.474;2023-08-06T01:17:46;18.80;99.90
44607;DHT22;30315;46.072;14.474;2023-08-06T01:20:13;18.80;99.90
44607;DHT22;30315;46.072;14.474;2023-08-06T01:22:39;18.90;99.90
44607;DHT22;30315;46.072;14.474;2023-08-06T01:25:06;18.80;99.90
44607;DHT22;30315;46.072;14.474;2023-08-06T01:27:37;18.80;99.90
44607;DHT22;30315;46.072;14.474;2023-08-06T01:30:19;18.80;99.90
44607;DHT22;30315;46.072;14.474;2023-08-06T01:32:49;18.80;99.90
44607;DHT22;30315;46.072;14.474;2023-08-06T01:35:17;18.80;99.90
44607;DHT22;30315;46.072;14.474;2023-08-06T01:37:45;18.80;99.90
44607;DHT22;30315;46.072;14.474;2023-08-06T01:40:13;18.80;99.90
44607;DHT22;30315;46.072;14.474;2023-08-06T01:42:39;18.90;99.90
44607;DHT22;30315;46.072;14.474;2023-08-06T01:45:07;18.80;99.90
44607;DHT22;30315;46.072;14.474;2023-08-06T01:47:34;18.80;99.90
44607;DHT22;30315;46.072;14.474;2023-08-06T01:50:02;18.80;99.90
44607;DHT22;30315;46.072;14.474;2023-08-06T01:52:28;18.80;99.90
44607;DHT22;30315;46.072;14.474;2023-08-06T01:54:55;18.80;99.90
44607;DHT22;30315;46.072;14.474;2023-08-06T01:57:22;18.70;99.70
44607;DHT22;30315;46.072;14.474;2023-08-06T01:59:49;18.80;99.70
44607;DHT22;30315;46.072;14.474;2023-08-06T02:02:17;18.80;99.90
44607;DHT22;30315;46.072;14.474;2023-08-06T02:04:43;18.80;99.90
44607;DHT22;30315;46.072;14.474;2023-08-06T02:07:11;18.80;99.90
44607;DHT22;30315;46.072;14.474;2023-08-06T02:09:38;18.80;99.90
44607;DHT22;30315;46.072;14.474;2023-08-06T02:12:06;18.80;99.90
44607;DHT22;30315;46.072;14.474;2023-08-06T02:14:33;18.80;99.90
44607;DHT22;30315;46.072;14.474;2023-08-06T02:17:01;18.80;99.60
44607;DHT22;30315;46.072;14.474;2023-08-06T02:19:28;18.80;99.60
44607;DHT22;30315;46.072;14.474;2023-08-06T02:24:51;18.80;99.90
44607;DHT22;30315;46.072;14.474;2023-08-06T02:27:18;18.80;99.90
44607;DHT22;30315;46.072;14.474;2023-08-06T02:29:44;18.80;99.90
44607;DHT22;30315;46.072;14.474;2023-08-06T02:32:11;18.70;99.90
44607;DHT22;30315;46.072;14.474;2023-08-06T02:34:38;18.70;99.90
44607;DHT22;30315;46.072;14.474;2023-08-06T02:37:05;18.70;99.90
44607;DHT22;30315;46.072;14.474;2023-08-06T02:39:32;18.90;99.90
44607;DHT22;30315;46.072;14.474;2023-08-06T02:42:00;18.70;99.90
44607;DHT22;30315;46.072;14.474;2023-08-06T02:44:30;18.70;99.90
44607;DHT22;30315;46.072;14.474;2023-08-06T02:46:57;18.80;99.90
44607;DHT22;30315;46.072;14.474;2023-08-06T02:49:24;18.70;99.90
44607;DHT22;30315;46.072;14.474;2023-08-06T02:51:51;18.80;99.90
44607;DHT22;30315;46.072;14.474;2023-08-06T02:54:19;18.70;99.90
44607;DHT22;30315;46.072;14.474;2023-08-06T02:56:46;18.70;99.90
44607;DHT22;30315;46.072;14.474;2023-08-06T02:59:23;19.00;99.90
44607;DHT22;30315;46.072;14.474;2023-08-06T03:02:02;19.00;99.90
44607;DHT22;30315;46.072;14.474;2023-08-06T03:04:39;18.70;99.90
44607;DHT22;30315;46.072;14.474;2023-08-06T03:07:08;18.70;99.90
44607;DHT22;30315;46.072;14.474;2023-08-06T03:09:44;18.70;99.90
44607;DHT22;30315;46.072;14.474;2023-08-06T03:12:11;18.70;99.90
44607;DHT22;30315;46.072;14.474;2023-08-06T03:14:38;18.70;99.90
44607;DHT22;30315;46.072;14.474;2023-08-06T03:17:07;18.70;99.90
44607;DHT22;30315;46.072;14.474;2023-08-06T03:19:35;18.60;99.90
44607;DHT22;30315;46.072;14.474;2023-08-06T03:22:03;18.70;99.90
44607;DHT22;30315;46.072;14.474;2023-08-06T03:24:32;18.70;99.90
44607;DHT22;30315;46.072;14.474;2023-08-06T03:26:59;18.60;99.90
44607;DHT22;30315;46.072;14.474;2023-08-06T03:29:26;18.70;99.90
44607;DHT22;30315;46.072;14.474;2023-08-06T03:31:55;18.60;99.90
44607;DHT22;30315;46.072;14.474;2023-08-06T03:34:22;18.70;99.90
44607;DHT22;30315;46.072;14.474;2023-08-06T03:36:50;18.70;99.90
44607;DHT22;30315;46.072;14.474;2023-08-06T03:39:17;18.70;99.90
44607;DHT22;30315;46.072;14.474;2023-08-06T03:41:44;18.80;99.90
44607;DHT22;30315;46.072;14.474;2023-08-06T03:44:11;18.70;99.90
44607;DHT22;30315;46.072;14.474;2023-08-06T03:46:38;18.60;99.90
44607;DHT22;30315;46.072;14.474;2023-08-06T03:49:07;18.60;99.90
44607;DHT22;30315;46.072;14.474;2023-08-06T03:51:34;18.60;99.90
44607;DHT22;30315;46.072;14.474;2023-08-06T03:54:01;18.60;99.90
44607;DHT22;30315;46.072;14.474;2023-08-06T03:56:29;18.60;99.90
44607;DHT22;30315;46.072;14.474;2023-08-06T03:58:56;18.70;99.90
44607;DHT22;30315;46.072;14.474;2023-08-06T04:01:23;18.60;99.90
44607;DHT22;30315;46.072;14.474;2023-08-06T04:03:52;18.70;99.90
44607;DHT22;30315;46.072;14.474;2023-08-06T04:06:19;18.60;99.90
44607;DHT22;30315;46.072;14.474;2023-08-06T04:08:45;18.60;99.90
44607;DHT22;30315;46.072;14.474;2023-08-06T04:11:12;18.60;99.90
44607;DHT22;30315;46.072;14.474;2023-08-06T04:13:44;18.60;99.90
44607;DHT22;30315;46.072;14.474;2023-08-06T04:16:11;18.60;99.90
44607;DHT22;30315;46.072;14.474;2023-08-06T04:18:39;18.60;99.90
44607;DHT22;30315;46.072;14.474;2023-08-06T04:21:06;18.60;99.90
44607;DHT22;30315;46.072;14.474;2023-08-06T04:23:32;18.60;99.90
44607;DHT22;30315;46.072;14.474;2023-08-06T04:26:03;18.60;99.90
44607;DHT22;30315;46.072;14.474;2023-08-06T04:28:33;18.60;99.90
44607;DHT22;30315;46.072;14.474;2023-08-06T04:31:00;18.60;99.90
44607;DHT22;30315;46.072;14.474;2023-08-06T04:33:29;18.60;99.90
44607;DHT22;30315;46.072;14.474;2023-08-06T04:35:59;18.60;99.90
44607;DHT22;30315;46.072;14.474;2023-08-06T04:38:26;18.60;99.90
44607;DHT22;30315;46.072;14.474;2023-08-06T04:40:54;18.60;99.90
44607;DHT22;30315;46.072;14.474;2023-08-06T04:43:22;18.60;99.90
44607;DHT22;30315;46.072;14.474;2023-08-06T04:45:50;18.60;99.90
44607;DHT22;30315;46.072;14.474;2023-08-06T04:48:17;18.60;99.90
44607;DHT22;30315;46.072;14.474;2023-08-06T04:50:49;18.60;99.90
44607;DHT22;30315;46.072;14.474;2023-08-06T04:53:16;18.80;99.90
44607;DHT22;30315;46.072;14.474;2023-08-06T04:55:43;18.60;99.90
44607;DHT22;30315;46.072;14.474;2023-08-06T04:58:10;18.60;99.90
44607;DHT22;30315;46.072;14.474;2023-08-06T05:00:37;18.60;99.90
44607;DHT22;30315;46.072;14.474;2023-08-06T05:03:04;18.60;99.90
44607;DHT22;30315;46.072;14.474;2023-08-06T05:05:31;18.60;99.90
44607;DHT22;30315;46.072;14.474;2023-08-06T05:07:58;18.60;99.90
44607;DHT22;30315;46.072;14.474;2023-08-06T05:10:25;18.60;99.90
44607;DHT22;30315;46.072;14.474;2023-08-06T05:12:53;18.60;99.90
44607;DHT22;30315;46.072;14.474;2023-08-06T05:15:20;18.60;99.90
44607;DHT22;30315;46.072;14.474;2023-08-06T05:17:47;18.20;99.90
44607;DHT22;30315;46.072;14.474;2023-08-06T05:20:13;18.60;99.90
44607;DHT22;30315;46.072;14.474;2023-08-06T05:22:41;18.70;99.90
44607;DHT22;30315;46.072;14.474;2023-08-06T05:25:07;18.70;99.90
44607;DHT22;30315;46.072;14.474;2023-08-06T05:27:34;18.20;99.90
44607;DHT22;30315;46.072;14.474;2023-08-06T05:30:01;18.70;99.90
44607;DHT22;30315;46.072;14.474;2023-08-06T05:32:28;18.70;99.90
44607;DHT22;30315;46.072;14.474;2023-08-06T05:34:55;18.80;99.90
44607;DHT22;30315;46.072;14.474;2023-08-06T05:37:22;18.70;99.90
44607;DHT22;30315;46.072;14.474;2023-08-06T05:39:49;18.70;99.90
44607;DHT22;30315;46.072;14.474;2023-08-06T05:42:16;18.70;99.90
44607;DHT22;30315;46.072;14.474;2023-08-06T05:44:43;18.70;99.90
44607;DHT22;30315;46.072;14.474;2023-08-06T05:47:10;18.70;99.90
44607;DHT22;30315;46.072;14.474;2023-08-06T05:49:37;18.40;99.90
44607;DHT22;30315;46.072;14.474;2023-08-06T05:52:04;18.80;99.90
44607;DHT22;30315;46.072;14.474;2023-08-06T05:54:33;18.70;99.90
44607;DHT22;30315;46.072;14.474;2023-08-06T05:56:59;18.70;99.90
44607;DHT22;30315;46.072;14.474;2023-08-06T05:59:26;18.80;99.90
44607;DHT22;30315;46.072;14.474;2023-08-06T06:01:53;18.80;99.90
44607;DHT22;30315;46.072;14.474;2023-08-06T06:04:20;18.80;99.90
44607;DHT22;30315;46.072;14.474;2023-08-06T06:06:47;18.80;99.90
44607;DHT22;30315;46.072;14.474;2023-08-06T06:09:14;18.70;99.90
44607;DHT22;30315;46.072;14.474;2023-08-06T06:11:43;18.90;99.90
44607;DHT22;30315;46.072;14.474;2023-08-06T06:14:10;18.80;99.90
44607;DHT22;30315;46.072;14.474;2023-08-06T06:16:37;18.90;99.90
44607;DHT22;30315;46.072;14.474;2023-08-06T06:19:04;18.90;99.90
44607;DHT22;30315;46.072;14.474;2023-08-06T06:21:31;18.90;99.90
44607;DHT22;30315;46.072;14.474;2023-08-06T06:23:58;18.90;99.90
44607;DHT22;30315;46.072;14.474;2023-08-06T06:26:25;19.00;99.90
44607;DHT22;30315;46.072;14.474;2023-08-06T06:28:52;19.00;99.90
44607;DHT22;30315;46.072;14.474;2023-08-06T06:31:18;19.00;99.90
44607;DHT22;30315;46.072;14.474;2023-08-06T06:33:45;19.00;99.90
44607;DHT22;30315;46.072;14.474;2023-08-06T06:36:12;19.00;99.90
44607;DHT22;30315;46.072;14.474;2023-08-06T06:38:39;18.80;99.90
44607;DHT22;30315;46.072;14.474;2023-08-06T06:41:06;19.00;99.90
44607;DHT22;30315;46.072;14.474;2023-08-06T06:43:33;19.00;99.90
44607;DHT22;30315;46.072;14.474;2023-08-06T06:46:00;19.10;99.90
44607;DHT22;30315;46.072;14.474;2023-08-06T06:48:28;19.10;99.90
44607;DHT22;30315;46.072;14.474;2023-08-06T06:50:55;19.10;99.90
44607;DHT22;30315;46.072;14.474;2023-08-06T06:53:22;19.20;99.90
44607;DHT22;30315;46.072;14.474;2023-08-06T06:56:04;19.20;99.90
44607;DHT22;30315;46.072;14.474;2023-08-06T06:58:32;19.20;99.90
44607;DHT22;30315;46.072;14.474;2023-08-06T07:00:59;19.20;99.90
44607;DHT22;30315;46.072;14.474;2023-08-06T07:03:26;19.30;99.90
44607;DHT22;30315;46.072;14.474;2023-08-06T07:05:57;19.40;99.90
44607;DHT22;30315;46.072;14.474;2023-08-06T07:08:24;19.50;99.90
44607;DHT22;30315;46.072;14.474;2023-08-06T07:10:51;19.50;99.90
44607;DHT22;30315;46.072;14.474;2023-08-06T07:13:25;19.60;99.90
44607;DHT22;30315;46.072;14.474;2023-08-06T07:15:52;19.60;99.90
44607;DHT22;30315;46.072;14.474;2023-08-06T07:18:20;19.70;99.90
44607;DHT22;30315;46.072;14.474;2023-08-06T07:20:51;19.70;99.90
44607;DHT22;30315;46.072;14.474;2023-08-06T07:23:18;19.70;99.90
44607;DHT22;30315;46.072;14.474;2023-08-06T07:25:46;19.70;99.90
44607;DHT22;30315;46.072;14.474;2023-08-06T07:28:13;19.80;99.90
44607;DHT22;30315;46.072;14.474;2023-08-06T07:30:40;19.90;99.90
44607;DHT22;30315;46.072;14.474;2023-08-06T07:33:07;19.90;99.90
44607;DHT22;30315;46.072;14.474;2023-08-06T07:35:35;19.90;99.70
44607;DHT22;30315;46.072;14.474;2023-08-06T07:38:02;19.90;99.40
44607;DHT22;30315;46.072;14.474;2023-08-06T07:40:29;19.90;99.50
44607;DHT22;30315;46.072;14.474;2023-08-06T07:42:56;19.90;99.50
44607;DHT22;30315;46.072;14.474;2023-08-06T07:45:23;20.00;99.60
44607;DHT22;30315;46.072;14.474;2023-08-06T07:47:50;20.10;99.50
44607;DHT22;30315;46.072;14.474;2023-08-06T07:50:23;20.00;99.40
44607;DHT22;30315;46.072;14.474;2023-08-06T07:52:57;19.80;99.30
44607;DHT22;30315;46.072;14.474;2023-08-06T07:55:25;20.10;99.30
44607;DHT22;30315;46.072;14.474;2023-08-06T07:57:52;20.10;99.30
44607;DHT22;30315;46.072;14.474;2023-08-06T08:00:19;20.20;99.40
44607;DHT22;30315;46.072;14.474;2023-08-06T08:02:46;20.20;99.00
44607;DHT22;30315;46.072;14.474;2023-08-06T08:05:13;20.20;98.90
44607;DHT22;30315;46.072;14.474;2023-08-06T08:07:40;20.30;99.30
44607;DHT22;30315;46.072;14.474;2023-08-06T08:10:07;20.30;99.10
44607;DHT22;30315;46.072;14.474;2023-08-06T08:12:34;20.30;99.00
44607;DHT22;30315;46.072;14.474;2023-08-06T08:15:01;20.40;99.00
44607;DHT22;30315;46.072;14.474;2023-08-06T08:17:28;20.40;99.00
44607;DHT22;30315;46.072;14.474;2023-08-06T08:19:55;20.60;99.10
44607;DHT22;30315;46.072;14.474;2023-08-06T08:22:22;20.50;99.00
44607;DHT22;30315;46.072;14.474;2023-08-06T08:24:48;20.50;99.30
44607;DHT22;30315;46.072;14.474;2023-08-06T08:27:15;20.50;99.20
44607;DHT22;30315;46.072;14.474;2023-08-06T08:29:42;20.60;99.30
44607;DHT22;30315;46.072;14.474;2023-08-06T08:32:09;20.60;99.50
44607;DHT22;30315;46.072;14.474;2023-08-06T08:34:37;20.70;99.40
44607;DHT22;30315;46.072;14.474;2023-08-06T08:37:04;20.70;99.30
44607;DHT22;30315;46.072;14.474;2023-08-06T08:39:32;20.80;98.90
44607;DHT22;30315;46.072;14.474;2023-08-06T08:41:59;20.80;98.60
44607;DHT22;30315;46.072;14.474;2023-08-06T08:44:27;20.80;98.60
44607;DHT22;30315;46.072;14.474;2023-08-06T08:46:56;20.80;98.70
44607;DHT22;30315;46.072;14.474;2023-08-06T08:49:23;20.90;98.80
44607;DHT22;30315;46.072;14.474;2023-08-06T08:51:50;20.90;98.80
44607;DHT22;30315;46.072;14.474;2023-08-06T08:54:19;21.00;98.90
44607;DHT22;30315;46.072;14.474;2023-08-06T08:56:46;21.10;98.70
44607;DHT22;30315;46.072;14.474;2023-08-06T08:59:13;21.10;98.60
44607;DHT22;30315;46.072;14.474;2023-08-06T09:01:40;21.20;98.30
44607;DHT22;30315;46.072;14.474;2023-08-06T09:04:09;21.20;97.90
44607;DHT22;30315;46.072;14.474;2023-08-06T09:06:37;21.20;97.50
44607;DHT22;30315;46.072;14.474;2023-08-06T09:09:08;21.20;97.10
44607;DHT22;30315;46.072;14.474;2023-08-06T09:11:37;20.80;96.90
44607;DHT22;30315;46.072;14.474;2023-08-06T09:14:07;21.20;97.20
44607;DHT22;30315;46.072;14.474;2023-08-06T09:16:37;21.20;96.80
44607;DHT22;30315;46.072;14.474;2023-08-06T09:19:11;21.20;96.60
44607;DHT22;30315;46.072;14.474;2023-08-06T09:21:39;21.20;96.30
44607;DHT22;30315;46.072;14.474;2023-08-06T09:24:10;21.20;96.50
44607;DHT22;30315;46.072;14.474;2023-08-06T09:26:37;21.30;96.00
44607;DHT22;30315;46.072;14.474;2023-08-06T09:29:05;21.30;96.30
44607;DHT22;30315;46.072;14.474;2023-08-06T09:31:43;21.30;96.60
44607;DHT22;30315;46.072;14.474;2023-08-06T09:34:19;21.30;96.80
44607;DHT22;30315;46.072;14.474;2023-08-06T09:36:47;21.30;97.00
44607;DHT22;30315;46.072;14.474;2023-08-06T09:39:15;21.40;97.00
44607;DHT22;30315;46.072;14.474;2023-08-06T09:41:42;21.40;96.70
44607;DHT22;30315;46.072;14.474;2023-08-06T09:44:20;21.50;97.10
44607;DHT22;30315;46.072;14.474;2023-08-06T09:46:48;21.60;97.00
44607;DHT22;30315;46.072;14.474;2023-08-06T09:49:16;21.60;96.70
44607;DHT22;30315;46.072;14.474;2023-08-06T09:51:43;21.60;96.50
44607;DHT22;30315;46.072;14.474;2023-08-06T09:54:12;21.60;96.50
44607;DHT22;30315;46.072;14.474;2023-08-06T09:56:53;21.70;96.80
44607;DHT22;30315;46.072;14.474;2023-08-06T09:59:20;21.70;96.80
44607;DHT22;30315;46.072;14.474;2023-08-06T10:01:47;21.80;96.60
44607;DHT22;30315;46.072;14.474;2023-08-06T10:04:15;21.90;96.60
44607;DHT22;30315;46.072;14.474;2023-08-06T10:06:50;21.90;96.50
44607;DHT22;30315;46.072;14.474;2023-08-06T10:09:17;22.00;95.90
44607;DHT22;30315;46.072;14.474;2023-08-06T10:11:48;22.00;95.70
44607;DHT22;30315;46.072;14.474;2023-08-06T10:14:18;22.10;95.70
44607;DHT22;30315;46.072;14.474;2023-08-06T10:16:46;22.20;95.90
44607;DHT22;30315;46.072;14.474;2023-08-06T10:19:13;22.30;96.00
44607;DHT22;30315;46.072;14.474;2023-08-06T10:21:41;22.40;96.00
44607;DHT22;30315;46.072;14.474;2023-08-06T10:24:08;22.50;95.00
44607;DHT22;30315;46.072;14.474;2023-08-06T10:26:39;22.60;94.10
44607;DHT22;30315;46.072;14.474;2023-08-06T10:31:55;22.80;93.90
44607;DHT22;30315;46.072;14.474;2023-08-06T10:34:46;22.90;93.60
44607;DHT22;30315;46.072;14.474;2023-08-06T10:37:15;22.90;93.40
44607;DHT22;30315;46.072;14.474;2023-08-06T10:39:48;23.00;92.90
44607;DHT22;30315;46.072;14.474;2023-08-06T10:42:27;23.00;92.50
44607;DHT22;30315;46.072;14.474;2023-08-06T10:47:42;22.90;92.10
44607;DHT22;30315;46.072;14.474;2023-08-06T10:50:14;22.90;91.90
44607;DHT22;30315;46.072;14.474;2023-08-06T10:52:49;22.80;91.70
44607;DHT22;30315;46.072;14.474;2023-08-06T10:55:26;22.70;91.80
44607;DHT22;30315;46.072;14.474;2023-08-06T10:57:53;22.70;92.10
44607;DHT22;30315;46.072;14.474;2023-08-06T11:00:21;22.70;92.20
44607;DHT22;30315;46.072;14.474;2023-08-06T11:02:49;22.60;92.40
44607;DHT22;30315;46.072;14.474;2023-08-06T11:05:17;22.50;92.70
44607;DHT22;30315;46.072;14.474;2023-08-06T11:07:44;22.50;92.80
44607;DHT22;30315;46.072;14.474;2023-08-06T11:10:11;22.40;92.80
44607;DHT22;30315;46.072;14.474;2023-08-06T11:12:39;22.40;92.80
44607;DHT22;30315;46.072;14.474;2023-08-06T11:15:06;22.30;92.90
44607;DHT22;30315;46.072;14.474;2023-08-06T11:17:33;22.20;92.90
44607;DHT22;30315;46.072;14.474;2023-08-06T11:20:01;22.20;92.80
44607;DHT22;30315;46.072;14.474;2023-08-06T11:22:28;22.10;93.00
44607;DHT22;30315;46.072;14.474;2023-08-06T11:24:55;22.00;92.80
44607;DHT22;30315;46.072;14.474;2023-08-06T11:27:22;22.00;93.20
44607;DHT22;30315;46.072;14.474;2023-08-06T11:29:49;21.90;92.80
44607;DHT22;30315;46.072;14.474;2023-08-06T11:32:16;21.80;93.20
44607;DHT22;30315;46.072;14.474;2023-08-06T11:34:44;21.70;92.80
44607;DHT22;30315;46.072;14.474;2023-08-06T11:37:10;21.60;93.00
44607;DHT22;30315;46.072;14.474;2023-08-06T11:39:38;21.50;93.20
44607;DHT22;30315;46.072;14.474;2023-08-06T11:42:05;21.40;92.40
44607;DHT22;30315;46.072;14.474;2023-08-06T11:44:35;21.30;92.20
44607;DHT22;30315;46.072;14.474;2023-08-06T11:47:03;21.10;91.50
44607;DHT22;30315;46.072;14.474;2023-08-06T11:49:41;21.00;91.70
44607;DHT22;30315;46.072;14.474;2023-08-06T11:54:38;20.80;92.30
44607;DHT22;30315;46.072;14.474;2023-08-06T11:57:05;20.60;92.80
44607;DHT22;30315;46.072;14.474;2023-08-06T11:59:32;20.60;92.90
44607;DHT22;30315;46.072;14.474;2023-08-06T12:02:01;20.50;92.40
44607;DHT22;30315;46.072;14.474;2023-08-06T12:04:28;20.40;92.30
44607;DHT22;30315;46.072;14.474;2023-08-06T12:06:55;20.30;92.20
44607;DHT22;30315;46.072;14.474;2023-08-06T12:09:30;20.20;92.30
44607;DHT22;30315;46.072;14.474;2023-08-06T12:11:57;20.30;92.60
44607;DHT22;30315;46.072;14.474;2023-08-06T12:14:24;20.20;92.70
44607;DHT22;30315;46.072;14.474;2023-08-06T12:16:51;20.20;92.90
44607;DHT22;30315;46.072;14.474;2023-08-06T12:19:18;20.10;93.20
44607;DHT22;30315;46.072;14.474;2023-08-06T12:22:52;20.10;92.40
44607;DHT22;30315;46.072;14.474;2023-08-06T12:25:19;20.00;92.70
44607;DHT22;30315;46.072;14.474;2023-08-06T12:27:47;19.90;92.80
44607;DHT22;30315;46.072;14.474;2023-08-06T12:30:14;19.90;93.10
44607;DHT22;30315;46.072;14.474;2023-08-06T12:32:41;19.80;92.60
44607;DHT22;30315;46.072;14.474;2023-08-06T12:35:08;19.80;92.50
44607;DHT22;30315;46.072;14.474;2023-08-06T12:37:35;19.70;92.90
44607;DHT22;30315;46.072;14.474;2023-08-06T12:40:05;19.70;92.60
44607;DHT22;30315;46.072;14.474;2023-08-06T12:42:53;19.60;91.80
44607;DHT22;30315;46.072;14.474;2023-08-06T12:45:20;19.50;91.40
44607;DHT22;30315;46.072;14.474;2023-08-06T12:47:49;19.40;90.50
44607;DHT22;30315;46.072;14.474;2023-08-06T12:50:17;19.30;91.20
44607;DHT22;30315;46.072;14.474;2023-08-06T12:52:45;19.20;91.40
44607;DHT22;30315;46.072;14.474;2023-08-06T12:55:12;19.20;91.20
44607;DHT22;30315;46.072;14.474;2023-08-06T12:57:39;19.20;91.20
44607;DHT22;30315;46.072;14.474;2023-08-06T13:00:24;19.10;91.20
44607;DHT22;30315;46.072;14.474;2023-08-06T13:02:51;19.00;91.80
44607;DHT22;30315;46.072;14.474;2023-08-06T13:05:18;19.00;92.30
44607;DHT22;30315;46.072;14.474;2023-08-06T13:07:45;19.00;92.70
44607;DHT22;30315;46.072;14.474;2023-08-06T13:10:12;19.00;92.40
44607;DHT22;30315;46.072;14.474;2023-08-06T13:12:39;19.00;92.20
44607;DHT22;30315;46.072;14.474;2023-08-06T13:15:06;18.90;93.00
44607;DHT22;30315;46.072;14.474;2023-08-06T13:17:33;18.90;93.30
44607;DHT22;30315;46.072;14.474;2023-08-06T13:20:00;18.90;93.50
44607;DHT22;30315;46.072;14.474;2023-08-06T13:22:28;18.90;93.10
44607;DHT22;30315;46.072;14.474;2023-08-06T13:24:54;18.90;93.30
44607;DHT22;30315;46.072;14.474;2023-08-06T13:27:21;18.90;93.20
44607;DHT22;30315;46.072;14.474;2023-08-06T13:29:48;18.90;92.80
44607;DHT22;30315;46.072;14.474;2023-08-06T13:32:15;19.00;93.30
44607;DHT22;30315;46.072;14.474;2023-08-06T13:34:43;19.10;94.00
44607;DHT22;30315;46.072;14.474;2023-08-06T13:37:10;19.40;94.10
44607;DHT22;30315;46.072;14.474;2023-08-06T13:39:38;19.60;93.80
44607;DHT22;30315;46.072;14.474;2023-08-06T13:42:05;19.80;93.50
44607;DHT22;30315;46.072;14.474;2023-08-06T13:44:33;20.00;93.30
44607;DHT22;30315;46.072;14.474;2023-08-06T13:47:02;20.30;93.40
44607;DHT22;30315;46.072;14.474;2023-08-06T13:49:29;20.60;93.10
44607;DHT22;30315;46.072;14.474;2023-08-06T13:51:56;20.70;91.60
44607;DHT22;30315;46.072;14.474;2023-08-06T13:54:41;20.80;91.00
44607;DHT22;30315;46.072;14.474;2023-08-06T13:57:08;21.10;90.90
44607;DHT22;30315;46.072;14.474;2023-08-06T13:59:35;21.30;90.80
44607;DHT22;30315;46.072;14.474;2023-08-06T14:02:02;21.50;89.90
44607;DHT22;30315;46.072;14.474;2023-08-06T14:04:30;21.70;87.20
44607;DHT22;30315;46.072;14.474;2023-08-06T14:06:57;21.80;86.60
44607;DHT22;30315;46.072;14.474;2023-08-06T14:09:24;22.00;87.10
44607;DHT22;30315;46.072;14.474;2023-08-06T14:11:51;22.10;86.50
44607;DHT22;30315;46.072;14.474;2023-08-06T14:14:18;22.30;85.90
44607;DHT22;30315;46.072;14.474;2023-08-06T14:16:45;22.40;83.50
44607;DHT22;30315;46.072;14.474;2023-08-06T14:19:12;22.50;83.10
44607;DHT22;30315;46.072;14.474;2023-08-06T14:21:39;22.70;83.60
44607;DHT22;30315;46.072;14.474;2023-08-06T14:24:06;22.90;84.00
44607;DHT22;30315;46.072;14.474;2023-08-06T14:26:33;22.90;82.30
44607;DHT22;30315;46.072;14.474;2023-08-06T14:29:01;23.00;81.50
44607;DHT22;30315;46.072;14.474;2023-08-06T14:31:28;23.00;80.80
44607;DHT22;30315;46.072;14.474;2023-08-06T14:33:55;23.00;80.60
44607;DHT22;30315;46.072;14.474;2023-08-06T14:36:22;22.90;79.20
44607;DHT22;30315;46.072;14.474;2023-08-06T14:38:49;22.80;79.10
44607;DHT22;30315;46.072;14.474;2023-08-06T14:41:26;22.70;78.30
44607;DHT22;30315;46.072;14.474;2023-08-06T14:43:53;22.50;77.60
44607;DHT22;30315;46.072;14.474;2023-08-06T14:46:21;22.40;77.40
44607;DHT22;30315;46.072;14.474;2023-08-06T14:48:48;22.20;77.40
44607;DHT22;30315;46.072;14.474;2023-08-06T14:51:15;22.00;77.80
44607;DHT22;30315;46.072;14.474;2023-08-06T14:53:42;21.90;78.60
44607;DHT22;30315;46.072;14.474;2023-08-06T14:56:09;21.70;79.00
44607;DHT22;30315;46.072;14.474;2023-08-06T14:58:36;21.60;79.80
44607;DHT22;30315;46.072;14.474;2023-08-06T15:01:03;21.40;80.40
44607;DHT22;30315;46.072;14.474;2023-08-06T15:03:30;21.30;81.60
44607;DHT22;30315;46.072;14.474;2023-08-06T15:05:58;21.20;82.30
44607;DHT22;30315;46.072;14.474;2023-08-06T15:08:25;21.10;83.20
44607;DHT22;30315;46.072;14.474;2023-08-06T15:10:53;21.00;82.50
44607;DHT22;30315;46.072;14.474;2023-08-06T15:13:20;20.90;82.70
44607;DHT22;30315;46.072;14.474;2023-08-06T15:15:50;20.90;83.50
44607;DHT22;30315;46.072;14.474;2023-08-06T15:18:17;20.80;83.90
44607;DHT22;30315;46.072;14.474;2023-08-06T15:20:45;20.70;84.50
44607;DHT22;30315;46.072;14.474;2023-08-06T15:23:16;20.70;84.10
44607;DHT22;30315;46.072;14.474;2023-08-06T15:25:43;20.70;84.30
44607;DHT22;30315;46.072;14.474;2023-08-06T15:28:10;20.70;85.00
44607;DHT22;30315;46.072;14.474;2023-08-06T15:30:38;20.80;84.90
44607;DHT22;30315;46.072;14.474;2023-08-06T15:33:19;20.70;85.10
44607;DHT22;30315;46.072;14.474;2023-08-06T15:36:23;20.70;84.90
44607;DHT22;30315;46.072;14.474;2023-08-06T15:38:53;20.70;83.90
44607;DHT22;30315;46.072;14.474;2023-08-06T15:41:28;20.70;84.10